Severo-Kuril'Sk, Russia
Current Conditions -  °F | °C
As of 3:00 PM on Monday 20 Oct 2014 (Local Time) from UHPP Reporting Station
Clear Clear  
Wind Chill: 52°   Ceiling: Unl
Heat Index: 52°   Visibility: 6mi
Dew Point: 25°   Wind: 2mph
Humidity: 35%   Direction: NA
Pressure: 29.97"   Gusts: NA
Location:  50.68°N, 156.13°E
Report Text: UHPP 200400Z VRB01MPS 9999 NSC 11/M04 Q1015 NOSIG RMKQFE757/1010 SC070
Loading
Personal Weather Stations






























Interactive Weather Map
Tropical Storm Tracking
New forecast layout! Learn more

10-Day Weather Forecast

Advertisements
Track Severe Weather on mobile